sensor_id;sensor_type;location;lat;lon;timestamp;P1;durP1;ratioP1;P2;durP2;ratioP2
76336;SDS011;65157;50.082;18.178;2023-04-29T00:00:12;13.40;;;6.90;;
76336;SDS011;65157;50.082;18.178;2023-04-29T00:02:59;13.90;;;6.20;;
76336;SDS011;65157;50.082;18.178;2023-04-29T00:05:26;12.20;;;6.20;;
76336;SDS011;65157;50.082;18.178;2023-04-29T00:07:53;10.90;;;6.00;;
76336;SDS011;65157;50.082;18.178;2023-04-29T00:10:20;10.30;;;5.10;;
76336;SDS011;65157;50.082;18.178;2023-04-29T00:12:47;8.80;;;5.70;;
76336;SDS011;65157;50.082;18.178;2023-04-29T00:15:13;12.90;;;6.20;;
76336;SDS011;65157;50.082;18.178;2023-04-29T00:17:40;10.90;;;6.00;;
76336;SDS011;65157;50.082;18.178;2023-04-29T00:20:07;10.10;;;5.70;;
76336;SDS011;65157;50.082;18.178;2023-04-29T00:22:34;10.00;;;5.90;;
76336;SDS011;65157;50.082;18.178;2023-04-29T00:25:01;9.70;;;5.80;;
76336;SDS011;65157;50.082;18.178;2023-04-29T00:27:28;7.50;;;5.00;;
76336;SDS011;65157;50.082;18.178;2023-04-29T00:29:55;7.90;;;5.50;;
76336;SDS011;65157;50.082;18.178;2023-04-29T00:32:21;12.30;;;5.50;;
76336;SDS011;65157;50.082;18.178;2023-04-29T00:34:48;8.30;;;5.60;;
76336;SDS011;65157;50.082;18.178;2023-04-29T00:37:15;9.40;;;5.20;;
76336;SDS011;65157;50.082;18.178;2023-04-29T00:39:42;7.70;;;6.30;;
76336;SDS011;65157;50.082;18.178;2023-04-29T00:42:08;9.70;;;6.30;;
76336;SDS011;65157;50.082;18.178;2023-04-29T00:44:35;9.90;;;5.60;;
76336;SDS011;65157;50.082;18.178;2023-04-29T00:47:02;11.90;;;6.30;;
76336;SDS011;65157;50.082;18.178;2023-04-29T00:49:28;10.40;;;5.50;;
76336;SDS011;65157;50.082;18.178;2023-04-29T00:51:55;9.20;;;5.90;;
76336;SDS011;65157;50.082;18.178;2023-04-29T00:54:23;7.80;;;5.70;;
76336;SDS011;65157;50.082;18.178;2023-04-29T00:56:49;9.60;;;6.50;;
76336;SDS011;65157;50.082;18.178;2023-04-29T00:59:16;8.50;;;5.60;;
76336;SDS011;65157;50.082;18.178;2023-04-29T01:01:44;10.20;;;5.90;;
76336;SDS011;65157;50.082;18.178;2023-04-29T01:04:12;8.80;;;6.00;;
76336;SDS011;65157;50.082;18.178;2023-04-29T01:06:53;10.70;;;5.60;;
76336;SDS011;65157;50.082;18.178;2023-04-29T01:15:01;10.40;;;7.00;;
76336;SDS011;65157;50.082;18.178;2023-04-29T01:17:30;9.70;;;6.20;;
76336;SDS011;65157;50.082;18.178;2023-04-29T01:20:04;9.80;;;6.40;;
76336;SDS011;65157;50.082;18.178;2023-04-29T01:22:32;11.50;;;6.60;;
76336;SDS011;65157;50.082;18.178;2023-04-29T01:24:59;9.50;;;6.10;;
76336;SDS011;65157;50.082;18.178;2023-04-29T01:27:30;9.50;;;6.40;;
76336;SDS011;65157;50.082;18.178;2023-04-29T01:30:06;11.50;;;6.10;;
76336;SDS011;65157;50.082;18.178;2023-04-29T01:35:58;11.50;;;6.50;;
76336;SDS011;65157;50.082;18.178;2023-04-29T01:38:36;11.40;;;6.90;;
76336;SDS011;65157;50.082;18.178;2023-04-29T01:41:26;13.20;;;7.10;;
76336;SDS011;65157;50.082;18.178;2023-04-29T01:43:58;15.50;;;8.40;;
76336;SDS011;65157;50.082;18.178;2023-04-29T01:46:28;11.80;;;7.40;;
76336;SDS011;65157;50.082;18.178;2023-04-29T01:48:56;14.00;;;8.30;;
76336;SDS011;65157;50.082;18.178;2023-04-29T01:51:23;15.10;;;8.30;;
76336;SDS011;65157;50.082;18.178;2023-04-29T01:53:49;14.30;;;8.00;;
76336;SDS011;65157;50.082;18.178;2023-04-29T01:56:16;11.80;;;8.10;;
76336;SDS011;65157;50.082;18.178;2023-04-29T01:58:42;11.30;;;7.70;;
76336;SDS011;65157;50.082;18.178;2023-04-29T02:01:10;12.50;;;8.10;;
76336;SDS011;65157;50.082;18.178;2023-04-29T02:03:37;16.60;;;8.40;;
76336;SDS011;65157;50.082;18.178;2023-04-29T02:06:04;13.20;;;8.40;;
76336;SDS011;65157;50.082;18.178;2023-04-29T02:08:32;12.50;;;7.20;;
76336;SDS011;65157;50.082;18.178;2023-04-29T02:10:59;13.90;;;8.80;;
76336;SDS011;65157;50.082;18.178;2023-04-29T02:13:25;12.10;;;6.90;;
76336;SDS011;65157;50.082;18.178;2023-04-29T02:16:06;12.10;;;6.80;;
76336;SDS011;65157;50.082;18.178;2023-04-29T02:18:33;11.40;;;7.00;;
76336;SDS011;65157;50.082;18.178;2023-04-29T02:21:00;12.00;;;6.70;;
76336;SDS011;65157;50.082;18.178;2023-04-29T02:23:30;10.50;;;8.00;;
76336;SDS011;65157;50.082;18.178;2023-04-29T02:25:56;13.70;;;6.80;;
76336;SDS011;65157;50.082;18.178;2023-04-29T02:28:23;9.80;;;7.60;;
76336;SDS011;65157;50.082;18.178;2023-04-29T02:30:49;11.70;;;7.00;;
76336;SDS011;65157;50.082;18.178;2023-04-29T02:33:16;11.20;;;6.90;;
76336;SDS011;65157;50.082;18.178;2023-04-29T02:35:43;13.10;;;7.50;;
76336;SDS011;65157;50.082;18.178;2023-04-29T02:40:43;13.00;;;7.00;;
76336;SDS011;65157;50.082;18.178;2023-04-29T02:43:11;11.70;;;6.90;;
76336;SDS011;65157;50.082;18.178;2023-04-29T02:45:38;11.20;;;7.10;;
76336;SDS011;65157;50.082;18.178;2023-04-29T02:50:32;13.80;;;7.10;;
76336;SDS011;65157;50.082;18.178;2023-04-29T02:52:59;9.20;;;7.00;;
76336;SDS011;65157;50.082;18.178;2023-04-29T02:55:26;10.20;;;7.20;;
76336;SDS011;65157;50.082;18.178;2023-04-29T02:57:55;13.90;;;7.40;;
76336;SDS011;65157;50.082;18.178;2023-04-29T03:00:22;12.40;;;6.60;;
76336;SDS011;65157;50.082;18.178;2023-04-29T03:02:49;11.20;;;7.30;;
76336;SDS011;65157;50.082;18.178;2023-04-29T03:05:16;11.80;;;8.00;;
76336;SDS011;65157;50.082;18.178;2023-04-29T03:07:42;12.10;;;7.90;;
76336;SDS011;65157;50.082;18.178;2023-04-29T03:10:09;14.50;;;7.40;;
76336;SDS011;65157;50.082;18.178;2023-04-29T03:12:36;12.70;;;6.80;;
76336;SDS011;65157;50.082;18.178;2023-04-29T03:15:03;12.30;;;7.60;;
76336;SDS011;65157;50.082;18.178;2023-04-29T03:17:30;10.30;;;7.20;;
76336;SDS011;65157;50.082;18.178;2023-04-29T03:19:57;11.20;;;7.20;;
76336;SDS011;65157;50.082;18.178;2023-04-29T03:22:24;13.50;;;7.20;;
76336;SDS011;65157;50.082;18.178;2023-04-29T03:24:50;12.50;;;7.00;;
76336;SDS011;65157;50.082;18.178;2023-04-29T03:27:17;14.80;;;8.40;;
76336;SDS011;65157;50.082;18.178;2023-04-29T03:29:45;16.90;;;8.40;;
76336;SDS011;65157;50.082;18.178;2023-04-29T03:32:11;16.70;;;9.10;;
76336;SDS011;65157;50.082;18.178;2023-04-29T03:34:38;16.20;;;8.70;;
76336;SDS011;65157;50.082;18.178;2023-04-29T03:37:05;17.80;;;9.70;;
76336;SDS011;65157;50.082;18.178;2023-04-29T03:39:32;14.90;;;9.30;;
76336;SDS011;65157;50.082;18.178;2023-04-29T03:41:58;18.70;;;8.80;;
76336;SDS011;65157;50.082;18.178;2023-04-29T03:44:25;18.50;;;8.80;;
76336;SDS011;65157;50.082;18.178;2023-04-29T03:46:52;14.70;;;7.90;;
76336;SDS011;65157;50.082;18.178;2023-04-29T03:49:18;16.00;;;9.10;;
76336;SDS011;65157;50.082;18.178;2023-04-29T03:51:45;15.00;;;7.90;;
76336;SDS011;65157;50.082;18.178;2023-04-29T03:54:15;15.20;;;8.70;;
76336;SDS011;65157;50.082;18.178;2023-04-29T03:56:44;13.80;;;7.70;;
76336;SDS011;65157;50.082;18.178;2023-04-29T03:59:12;13.90;;;7.80;;
76336;SDS011;65157;50.082;18.178;2023-04-29T04:01:38;13.90;;;8.10;;
76336;SDS011;65157;50.082;18.178;2023-04-29T04:04:05;16.90;;;8.10;;
76336;SDS011;65157;50.082;18.178;2023-04-29T04:06:32;15.40;;;9.00;;
76336;SDS011;65157;50.082;18.178;2023-04-29T04:08:58;14.60;;;8.20;;
76336;SDS011;65157;50.082;18.178;2023-04-29T04:11:25;16.60;;;8.30;;
76336;SDS011;65157;50.082;18.178;2023-04-29T04:13:51;16.00;;;7.60;;
76336;SDS011;65157;50.082;18.178;2023-04-29T04:16:18;16.10;;;8.80;;
76336;SDS011;65157;50.082;18.178;2023-04-29T04:18:45;17.00;;;8.90;;
76336;SDS011;65157;50.082;18.178;2023-04-29T04:21:11;18.80;;;8.90;;
76336;SDS011;65157;50.082;18.178;2023-04-29T04:23:38;15.20;;;8.10;;
76336;SDS011;65157;50.082;18.178;2023-04-29T04:26:05;16.30;;;8.00;;
76336;SDS011;65157;50.082;18.178;2023-04-29T04:28:32;16.60;;;8.50;;
76336;SDS011;65157;50.082;18.178;2023-04-29T04:30:59;14.20;;;7.60;;
76336;SDS011;65157;50.082;18.178;2023-04-29T04:33:26;14.60;;;9.10;;
76336;SDS011;65157;50.082;18.178;2023-04-29T04:35:52;16.00;;;9.20;;
76336;SDS011;65157;50.082;18.178;2023-04-29T04:38:19;17.50;;;8.20;;
76336;SDS011;65157;50.082;18.178;2023-04-29T04:40:47;18.30;;;9.10;;
76336;SDS011;65157;50.082;18.178;2023-04-29T04:43:14;18.40;;;9.80;;
76336;SDS011;65157;50.082;18.178;2023-04-29T04:45:40;18.00;;;9.00;;
76336;SDS011;65157;50.082;18.178;2023-04-29T04:48:07;18.70;;;9.80;;
76336;SDS011;65157;50.082;18.178;2023-04-29T04:50:34;18.90;;;10.40;;
76336;SDS011;65157;50.082;18.178;2023-04-29T04:53:00;23.70;;;10.50;;
76336;SDS011;65157;50.082;18.178;2023-04-29T04:55:27;23.00;;;12.60;;
76336;SDS011;65157;50.082;18.178;2023-04-29T04:57:54;17.90;;;9.50;;
76336;SDS011;65157;50.082;18.178;2023-04-29T05:00:20;12.70;;;8.20;;
76336;SDS011;65157;50.082;18.178;2023-04-29T05:02:48;19.00;;;9.20;;
76336;SDS011;65157;50.082;18.178;2023-04-29T05:05:16;15.30;;;9.20;;
76336;SDS011;65157;50.082;18.178;2023-04-29T05:07:42;16.70;;;9.30;;
76336;SDS011;65157;50.082;18.178;2023-04-29T05:10:09;17.60;;;7.90;;
76336;SDS011;65157;50.082;18.178;2023-04-29T05:12:39;12.60;;;7.60;;
76336;SDS011;65157;50.082;18.178;2023-04-29T05:15:05;13.20;;;7.40;;
76336;SDS011;65157;50.082;18.178;2023-04-29T05:17:33;13.80;;;7.40;;
76336;SDS011;65157;50.082;18.178;2023-04-29T05:20:00;12.90;;;7.10;;
76336;SDS011;65157;50.082;18.178;2023-04-29T05:22:28;11.30;;;6.70;;
76336;SDS011;65157;50.082;18.178;2023-04-29T05:24:54;12.60;;;6.70;;
76336;SDS011;65157;50.082;18.178;2023-04-29T05:27:21;14.20;;;6.90;;
76336;SDS011;65157;50.082;18.178;2023-04-29T05:29:48;9.40;;;5.70;;
76336;SDS011;65157;50.082;18.178;2023-04-29T05:32:14;11.10;;;6.30;;
76336;SDS011;65157;50.082;18.178;2023-04-29T05:34:41;8.70;;;5.60;;
76336;SDS011;65157;50.082;18.178;2023-04-29T05:37:08;9.20;;;5.30;;
76336;SDS011;65157;50.082;18.178;2023-04-29T05:39:36;8.30;;;5.90;;
76336;SDS011;65157;50.082;18.178;2023-04-29T05:42:04;9.40;;;6.40;;
76336;SDS011;65157;50.082;18.178;2023-04-29T05:44:31;11.30;;;6.80;;
76336;SDS011;65157;50.082;18.178;2023-04-29T05:46:58;8.30;;;6.00;;
76336;SDS011;65157;50.082;18.178;2023-04-29T05:49:25;8.10;;;6.30;;
76336;SDS011;65157;50.082;18.178;2023-04-29T05:51:52;9.30;;;5.80;;
76336;SDS011;65157;50.082;18.178;2023-04-29T05:54:19;13.10;;;6.60;;
76336;SDS011;65157;50.082;18.178;2023-04-29T05:56:46;9.30;;;6.60;;
76336;SDS011;65157;50.082;18.178;2023-04-29T05:59:13;12.80;;;5.50;;
76336;SDS011;65157;50.082;18.178;2023-04-29T06:01:42;6.70;;;4.50;;
76336;SDS011;65157;50.082;18.178;2023-04-29T06:04:08;8.00;;;5.20;;
76336;SDS011;65157;50.082;18.178;2023-04-29T06:09:02;5.30;;;3.90;;
76336;SDS011;65157;50.082;18.178;2023-04-29T06:11:29;6.90;;;3.90;;
76336;SDS011;65157;50.082;18.178;2023-04-29T06:13:55;7.90;;;3.70;;
76336;SDS011;65157;50.082;18.178;2023-04-29T06:16:22;9.40;;;4.50;;
76336;SDS011;65157;50.082;18.178;2023-04-29T06:18:49;5.50;;;3.40;;
76336;SDS011;65157;50.082;18.178;2023-04-29T06:21:15;5.60;;;4.10;;
76336;SDS011;65157;50.082;18.178;2023-04-29T06:23:42;7.70;;;4.10;;
76336;SDS011;65157;50.082;18.178;2023-04-29T06:26:08;7.30;;;4.00;;
76336;SDS011;65157;50.082;18.178;2023-04-29T06:28:35;4.60;;;3.50;;
76336;SDS011;65157;50.082;18.178;2023-04-29T06:31:03;4.80;;;3.60;;
76336;SDS011;65157;50.082;18.178;2023-04-29T06:33:30;5.50;;;4.30;;
76336;SDS011;65157;50.082;18.178;2023-04-29T06:35:56;5.70;;;3.80;;
76336;SDS011;65157;50.082;18.178;2023-04-29T06:38:23;6.20;;;4.20;;
76336;SDS011;65157;50.082;18.178;2023-04-29T06:40:50;5.70;;;3.50;;
76336;SDS011;65157;50.082;18.178;2023-04-29T06:43:16;5.00;;;3.30;;
76336;SDS011;65157;50.082;18.178;2023-04-29T06:45:46;5.80;;;4.00;;
76336;SDS011;65157;50.082;18.178;2023-04-29T06:48:13;5.40;;;3.90;;
76336;SDS011;65157;50.082;18.178;2023-04-29T06:50:53;3.40;;;3.10;;
76336;SDS011;65157;50.082;18.178;2023-04-29T06:53:21;4.90;;;4.40;;
76336;SDS011;65157;50.082;18.178;2023-04-29T06:55:48;5.20;;;3.90;;
76336;SDS011;65157;50.082;18.178;2023-04-29T06:58:15;4.90;;;3.90;;
76336;SDS011;65157;50.082;18.178;2023-04-29T07:00:46;7.70;;;5.20;;
76336;SDS011;65157;50.082;18.178;2023-04-29T07:03:14;5.70;;;4.40;;
76336;SDS011;65157;50.082;18.178;2023-04-29T07:05:41;7.00;;;4.60;;
76336;SDS011;65157;50.082;18.178;2023-04-29T07:08:08;6.50;;;4.20;;
76336;SDS011;65157;50.082;18.178;2023-04-29T07:10:35;8.80;;;4.50;;
76336;SDS011;65157;50.082;18.178;2023-04-29T07:13:02;4.80;;;3.50;;
76336;SDS011;65157;50.082;18.178;2023-04-29T07:17:55;6.90;;;4.30;;
76336;SDS011;65157;50.082;18.178;2023-04-29T07:20:22;9.00;;;4.30;;
76336;SDS011;65157;50.082;18.178;2023-04-29T07:25:15;7.90;;;4.90;;
76336;SDS011;65157;50.082;18.178;2023-04-29T07:27:42;7.20;;;4.00;;
76336;SDS011;65157;50.082;18.178;2023-04-29T07:30:12;6.70;;;4.20;;
76336;SDS011;65157;50.082;18.178;2023-04-29T07:32:39;6.90;;;4.60;;
76336;SDS011;65157;50.082;18.178;2023-04-29T07:35:06;5.70;;;4.00;;
76336;SDS011;65157;50.082;18.178;2023-04-29T07:37:38;8.50;;;5.60;;
76336;SDS011;65157;50.082;18.178;2023-04-29T07:40:06;7.00;;;4.90;;
76336;SDS011;65157;50.082;18.178;2023-04-29T07:42:36;7.60;;;4.80;;
76336;SDS011;65157;50.082;18.178;2023-04-29T07:45:03;3.90;;;3.00;;
76336;SDS011;65157;50.082;18.178;2023-04-29T07:47:31;6.20;;;3.80;;
76336;SDS011;65157;50.082;18.178;2023-04-29T07:49:59;8.50;;;5.10;;
76336;SDS011;65157;50.082;18.178;2023-04-29T07:52:25;6.90;;;4.60;;
76336;SDS011;65157;50.082;18.178;2023-04-29T07:54:53;7.80;;;3.70;;
76336;SDS011;65157;50.082;18.178;2023-04-29T07:57:20;6.90;;;4.40;;
76336;SDS011;65157;50.082;18.178;2023-04-29T07:59:53;6.50;;;4.40;;
76336;SDS011;65157;50.082;18.178;2023-04-29T08:02:20;7.00;;;4.50;;
76336;SDS011;65157;50.082;18.178;2023-04-29T08:07:13;7.40;;;4.40;;
76336;SDS011;65157;50.082;18.178;2023-04-29T08:12:07;7.20;;;4.80;;
76336;SDS011;65157;50.082;18.178;2023-04-29T08:17:04;6.30;;;3.80;;
76336;SDS011;65157;50.082;18.178;2023-04-29T08:19:31;8.70;;;5.50;;
76336;SDS011;65157;50.082;18.178;2023-04-29T08:21:57;7.60;;;5.20;;
76336;SDS011;65157;50.082;18.178;2023-04-29T08:24:24;8.80;;;5.30;;
76336;SDS011;65157;50.082;18.178;2023-04-29T08:26:51;5.10;;;3.70;;
76336;SDS011;65157;50.082;18.178;2023-04-29T08:29:17;9.40;;;5.10;;
76336;SDS011;65157;50.082;18.178;2023-04-29T08:31:44;5.90;;;4.10;;
76336;SDS011;65157;50.082;18.178;2023-04-29T08:34:11;7.50;;;5.20;;
76336;SDS011;65157;50.082;18.178;2023-04-29T08:36:38;8.20;;;5.50;;
76336;SDS011;65157;50.082;18.178;2023-04-29T08:39:04;7.90;;;5.10;;
76336;SDS011;65157;50.082;18.178;2023-04-29T08:44:00;8.80;;;4.40;;
76336;SDS011;65157;50.082;18.178;2023-04-29T08:46:27;7.60;;;4.60;;
76336;SDS011;65157;50.082;18.178;2023-04-29T08:48:56;5.70;;;3.70;;
76336;SDS011;65157;50.082;18.178;2023-04-29T08:51:24;7.20;;;4.40;;
76336;SDS011;65157;50.082;18.178;2023-04-29T08:56:18;8.40;;;5.50;;
76336;SDS011;65157;50.082;18.178;2023-04-29T08:58:44;6.40;;;4.00;;
76336;SDS011;65157;50.082;18.178;2023-04-29T09:01:12;8.50;;;4.80;;
76336;SDS011;65157;50.082;18.178;2023-04-29T09:03:42;6.30;;;4.80;;
76336;SDS011;65157;50.082;18.178;2023-04-29T09:06:15;9.00;;;5.20;;
76336;SDS011;65157;50.082;18.178;2023-04-29T09:08:43;3.70;;;2.70;;
76336;SDS011;65157;50.082;18.178;2023-04-29T09:11:13;7.30;;;5.00;;
76336;SDS011;65157;50.082;18.178;2023-04-29T09:13:40;7.00;;;4.40;;
76336;SDS011;65157;50.082;18.178;2023-04-29T09:16:10;5.50;;;3.70;;
76336;SDS011;65157;50.082;18.178;2023-04-29T09:18:48;8.80;;;5.10;;
76336;SDS011;65157;50.082;18.178;2023-04-29T09:21:23;10.30;;;5.40;;
76336;SDS011;65157;50.082;18.178;2023-04-29T09:23:52;10.50;;;5.00;;
76336;SDS011;65157;50.082;18.178;2023-04-29T09:26:20;8.40;;;5.30;;
76336;SDS011;65157;50.082;18.178;2023-04-29T09:29:04;10.80;;;6.70;;
76336;SDS011;65157;50.082;18.178;2023-04-29T09:31:31;9.70;;;6.60;;
76336;SDS011;65157;50.082;18.178;2023-04-29T09:33:58;11.90;;;6.80;;
76336;SDS011;65157;50.082;18.178;2023-04-29T09:39:14;11.40;;;6.80;;
76336;SDS011;65157;50.082;18.178;2023-04-29T09:41:55;9.90;;;6.50;;
76336;SDS011;65157;50.082;18.178;2023-04-29T09:44:30;11.60;;;7.90;;
76336;SDS011;65157;50.082;18.178;2023-04-29T09:47:06;11.10;;;6.40;;
76336;SDS011;65157;50.082;18.178;2023-04-29T09:49:36;10.60;;;7.70;;
76336;SDS011;65157;50.082;18.178;2023-04-29T09:52:08;12.30;;;8.00;;
76336;SDS011;65157;50.082;18.178;2023-04-29T09:54:36;9.10;;;7.30;;
76336;SDS011;65157;50.082;18.178;2023-04-29T09:57:05;11.70;;;7.40;;
76336;SDS011;65157;50.082;18.178;2023-04-29T09:59:33;13.30;;;8.10;;
76336;SDS011;65157;50.082;18.178;2023-04-29T10:02:05;13.60;;;8.10;;
76336;SDS011;65157;50.082;18.178;2023-04-29T10:04:39;13.80;;;7.60;;
76336;SDS011;65157;50.082;18.178;2023-04-29T10:07:06;12.30;;;7.20;;
76336;SDS011;65157;50.082;18.178;2023-04-29T10:09:34;9.80;;;7.00;;
76336;SDS011;65157;50.082;18.178;2023-04-29T10:12:05;10.20;;;6.10;;
76336;SDS011;65157;50.082;18.178;2023-04-29T10:14:35;11.60;;;6.70;;
76336;SDS011;65157;50.082;18.178;2023-04-29T10:17:23;10.20;;;6.30;;
76336;SDS011;65157;50.082;18.178;2023-04-29T10:20:04;10.00;;;6.70;;
76336;SDS011;65157;50.082;18.178;2023-04-29T10:25:12;12.40;;;7.70;;
76336;SDS011;65157;50.082;18.178;2023-04-29T10:27:41;8.90;;;6.40;;
76336;SDS011;65157;50.082;18.178;2023-04-29T10:30:15;7.00;;;5.20;;
76336;SDS011;65157;50.082;18.178;2023-04-29T10:32:44;3.80;;;2.70;;
76336;SDS011;65157;50.082;18.178;2023-04-29T10:35:14;6.10;;;3.70;;
76336;SDS011;65157;50.082;18.178;2023-04-29T10:37:45;4.90;;;4.10;;
76336;SDS011;65157;50.082;18.178;2023-04-29T10:40:14;4.70;;;3.60;;
76336;SDS011;65157;50.082;18.178;2023-04-29T10:42:44;5.10;;;4.00;;
76336;SDS011;65157;50.082;18.178;2023-04-29T10:50:29;5.40;;;4.40;;
76336;SDS011;65157;50.082;18.178;2023-04-29T10:52:57;6.20;;;3.40;;
76336;SDS011;65157;50.082;18.178;2023-04-29T10:55:29;5.00;;;3.00;;
76336;SDS011;65157;50.082;18.178;2023-04-29T10:57:57;6.70;;;4.90;;
76336;SDS011;65157;50.082;18.178;2023-04-29T11:00:31;7.40;;;4.60;;
76336;SDS011;65157;50.082;18.178;2023-04-29T11:03:00;7.00;;;5.10;;
76336;SDS011;65157;50.082;18.178;2023-04-29T11:05:36;7.90;;;5.80;;
76336;SDS011;65157;50.082;18.178;2023-04-29T11:08:13;6.00;;;5.40;;
76336;SDS011;65157;50.082;18.178;2023-04-29T11:10:41;7.10;;;4.80;;
76336;SDS011;65157;50.082;18.178;2023-04-29T11:13:24;7.40;;;5.70;;
76336;SDS011;65157;50.082;18.178;2023-04-29T11:15:53;6.90;;;5.30;;
76336;SDS011;65157;50.082;18.178;2023-04-29T11:23:35;10.50;;;6.30;;
76336;SDS011;65157;50.082;18.178;2023-04-29T11:26:05;7.00;;;5.40;;
76336;SDS011;65157;50.082;18.178;2023-04-29T11:28:33;6.60;;;4.50;;
76336;SDS011;65157;50.082;18.178;2023-04-29T11:33:26;8.10;;;5.70;;
76336;SDS011;65157;50.082;18.178;2023-04-29T11:35:53;9.30;;;6.10;;
76336;SDS011;65157;50.082;18.178;2023-04-29T11:38:27;5.10;;;4.20;;
76336;SDS011;65157;50.082;18.178;2023-04-29T11:40:58;6.70;;;4.90;;
76336;SDS011;65157;50.082;18.178;2023-04-29T11:43:25;3.60;;;3.20;;
76336;SDS011;65157;50.082;18.178;2023-04-29T11:45:57;5.80;;;4.40;;
76336;SDS011;65157;50.082;18.178;2023-04-29T11:48:26;6.20;;;4.60;;
76336;SDS011;65157;50.082;18.178;2023-04-29T11:50:58;6.50;;;4.30;;
76336;SDS011;65157;50.082;18.178;2023-04-29T11:53:28;6.10;;;4.10;;
76336;SDS011;65157;50.082;18.178;2023-04-29T11:55:57;4.80;;;3.00;;
76336;SDS011;65157;50.082;18.178;2023-04-29T11:58:23;4.80;;;3.20;;
76336;SDS011;65157;50.082;18.178;2023-04-29T12:03:17;3.50;;;2.80;;
76336;SDS011;65157;50.082;18.178;2023-04-29T12:05:46;3.50;;;2.90;;
76336;SDS011;65157;50.082;18.178;2023-04-29T12:08:22;3.60;;;3.00;;
76336;SDS011;65157;50.082;18.178;2023-04-29T12:10:55;3.50;;;2.30;;
76336;SDS011;65157;50.082;18.178;2023-04-29T12:13:28;4.20;;;3.30;;
76336;SDS011;65157;50.082;18.178;2023-04-29T12:15:56;4.60;;;3.00;;
76336;SDS011;65157;50.082;18.178;2023-04-29T12:18:24;4.00;;;3.00;;
76336;SDS011;65157;50.082;18.178;2023-04-29T12:20:51;3.90;;;3.40;;
76336;SDS011;65157;50.082;18.178;2023-04-29T12:23:19;5.30;;;3.20;;
76336;SDS011;65157;50.082;18.178;2023-04-29T12:25:51;4.00;;;3.10;;
76336;SDS011;65157;50.082;18.178;2023-04-29T12:28:21;3.50;;;2.70;;
76336;SDS011;65157;50.082;18.178;2023-04-29T12:30:55;3.10;;;2.70;;
76336;SDS011;65157;50.082;18.178;2023-04-29T12:33:26;3.30;;;3.00;;
76336;SDS011;65157;50.082;18.178;2023-04-29T12:35:56;3.20;;;2.90;;
76336;SDS011;65157;50.082;18.178;2023-04-29T12:38:25;3.10;;;2.80;;
76336;SDS011;65157;50.082;18.178;2023-04-29T12:41:16;3.10;;;2.70;;
76336;SDS011;65157;50.082;18.178;2023-04-29T12:43:45;3.30;;;2.40;;
76336;SDS011;65157;50.082;18.178;2023-04-29T12:48:50;2.40;;;2.20;;
76336;SDS011;65157;50.082;18.178;2023-04-29T12:53:44;3.50;;;3.00;;
76336;SDS011;65157;50.082;18.178;2023-04-29T12:58:37;3.60;;;2.40;;
76336;SDS011;65157;50.082;18.178;2023-04-29T13:01:10;4.50;;;2.80;;
76336;SDS011;65157;50.082;18.178;2023-04-29T13:03:37;4.10;;;2.80;;
76336;SDS011;65157;50.082;18.178;2023-04-29T13:08:33;3.90;;;2.70;;
76336;SDS011;65157;50.082;18.178;2023-04-29T13:13:26;2.70;;;2.50;;
76336;SDS011;65157;50.082;18.178;2023-04-29T13:15:54;3.10;;;2.60;;
76336;SDS011;65157;50.082;18.178;2023-04-29T13:18:21;2.30;;;2.10;;
76336;SDS011;65157;50.082;18.178;2023-04-29T13:20:57;1.90;;;1.60;;
76336;SDS011;65157;50.082;18.178;2023-04-29T13:25:51;2.70;;;2.20;;
76336;SDS011;65157;50.082;18.178;2023-04-29T13:28:37;2.70;;;1.90;;
76336;SDS011;65157;50.082;18.178;2023-04-29T13:33:30;3.00;;;2.20;;
76336;SDS011;65157;50.082;18.178;2023-04-29T13:38:24;4.20;;;2.30;;
76336;SDS011;65157;50.082;18.178;2023-04-29T13:40:51;2.00;;;1.80;;
76336;SDS011;65157;50.082;18.178;2023-04-29T13:45:50;2.90;;;2.60;;
76336;SDS011;65157;50.082;18.178;2023-04-29T13:48:19;5.30;;;3.40;;
76336;SDS011;65157;50.082;18.178;2023-04-29T13:50:46;4.20;;;2.80;;
76336;SDS011;65157;50.082;18.178;2023-04-29T13:53:34;7.00;;;4.60;;
76336;SDS011;65157;50.082;18.178;2023-04-29T13:56:01;9.50;;;5.30;;
76336;SDS011;65157;50.082;18.178;2023-04-29T13:58:28;18.60;;;8.40;;
76336;SDS011;65157;50.082;18.178;2023-04-29T14:03:21;4.10;;;2.80;;
76336;SDS011;65157;50.082;18.178;2023-04-29T14:05:55;6.10;;;3.90;;
76336;SDS011;65157;50.082;18.178;2023-04-29T14:08:22;8.70;;;5.00;;
76336;SDS011;65157;50.082;18.178;2023-04-29T14:10:49;10.80;;;5.10;;
76336;SDS011;65157;50.082;18.178;2023-04-29T14:13:16;8.80;;;5.10;;
76336;SDS011;65157;50.082;18.178;2023-04-29T14:15:45;8.50;;;4.50;;
76336;SDS011;65157;50.082;18.178;2023-04-29T14:18:12;5.60;;;3.90;;
76336;SDS011;65157;50.082;18.178;2023-04-29T14:20:42;5.70;;;3.40;;
76336;SDS011;65157;50.082;18.178;2023-04-29T14:23:09;7.80;;;4.00;;
76336;SDS011;65157;50.082;18.178;2023-04-29T14:25:39;7.20;;;2.90;;
76336;SDS011;65157;50.082;18.178;2023-04-29T14:30:32;4.70;;;2.80;;
76336;SDS011;65157;50.082;18.178;2023-04-29T14:32:59;4.60;;;2.80;;
76336;SDS011;65157;50.082;18.178;2023-04-29T14:35:26;4.60;;;3.30;;
76336;SDS011;65157;50.082;18.178;2023-04-29T14:37:53;3.80;;;3.00;;
76336;SDS011;65157;50.082;18.178;2023-04-29T14:40:19;3.40;;;3.10;;
76336;SDS011;65157;50.082;18.178;2023-04-29T14:45:13;5.70;;;3.60;;
76336;SDS011;65157;50.082;18.178;2023-04-29T14:47:39;7.10;;;4.60;;
76336;SDS011;65157;50.082;18.178;2023-04-29T14:50:06;9.20;;;4.90;;
76336;SDS011;65157;50.082;18.178;2023-04-29T14:52:34;7.20;;;4.70;;
76336;SDS011;65157;50.082;18.178;2023-04-29T14:55:01;4.80;;;4.30;;
76336;SDS011;65157;50.082;18.178;2023-04-29T14:57:29;5.20;;;3.90;;
76336;SDS011;65157;50.082;18.178;2023-04-29T14:59:57;7.30;;;4.50;;
76336;SDS011;65157;50.082;18.178;2023-04-29T15:02:24;5.10;;;4.20;;
76336;SDS011;65157;50.082;18.178;2023-04-29T15:07:23;7.60;;;5.20;;
76336;SDS011;65157;50.082;18.178;2023-04-29T15:09:50;6.70;;;5.60;;
76336;SDS011;65157;50.082;18.178;2023-04-29T15:12:17;6.70;;;5.30;;
76336;SDS011;65157;50.082;18.178;2023-04-29T15:14:47;7.70;;;6.10;;
76336;SDS011;65157;50.082;18.178;2023-04-29T15:17:13;8.30;;;5.40;;
76336;SDS011;65157;50.082;18.178;2023-04-29T15:19:40;7.90;;;5.40;;
76336;SDS011;65157;50.082;18.178;2023-04-29T15:24:34;12.30;;;7.50;;
76336;SDS011;65157;50.082;18.178;2023-04-29T15:27:01;12.50;;;8.50;;
76336;SDS011;65157;50.082;18.178;2023-04-29T15:29:28;11.60;;;7.80;;
76336;SDS011;65157;50.082;18.178;2023-04-29T15:31:56;13.60;;;8.40;;
76336;SDS011;65157;50.082;18.178;2023-04-29T15:34:23;11.30;;;7.20;;
76336;SDS011;65157;50.082;18.178;2023-04-29T15:39:16;10.80;;;7.40;;
76336;SDS011;65157;50.082;18.178;2023-04-29T15:44:10;8.10;;;5.60;;
76336;SDS011;65157;50.082;18.178;2023-04-29T15:46:40;7.50;;;4.70;;
76336;SDS011;65157;50.082;18.178;2023-04-29T15:49:06;6.80;;;4.60;;
76336;SDS011;65157;50.082;18.178;2023-04-29T15:51:33;5.40;;;4.10;;
76336;SDS011;65157;50.082;18.178;2023-04-29T15:53:59;5.70;;;3.80;;
76336;SDS011;65157;50.082;18.178;2023-04-29T15:56:26;4.40;;;4.00;;
76336;SDS011;65157;50.082;18.178;2023-04-29T15:58:53;4.20;;;3.80;;
76336;SDS011;65157;50.082;18.178;2023-04-29T16:03:46;5.80;;;4.30;;
76336;SDS011;65157;50.082;18.178;2023-04-29T16:06:14;6.80;;;4.70;;
76336;SDS011;65157;50.082;18.178;2023-04-29T16:08:41;6.40;;;5.30;;
76336;SDS011;65157;50.082;18.178;2023-04-29T16:11:08;7.70;;;5.80;;